Drayton, South Carolina
Current Conditions -  °F | °C
As of 9:15 AM on Thursday 27 Nov 2014 (Local Time) from KSPA Reporting Station
Clear Clear  
Wind Chill: 41°   Ceiling: Unl
Heat Index: 45°   Visibility: 10mi
Dew Point: 32°   Wind: 7mph
Humidity: 61%   Direction: 260°W
Pressure: 30.1"   Gusts: NA
Location:  34.96°N, 81.9°W
Report Text: KSPA 271415Z AUTO 26006KT 10SM CLR 07/00 A3010 RMK AO2
Loading
Personal Weather Stations






























Interactive Weather Map New forecast layout! Learn more

10-Day Weather Forecast

Advertisements
Track Severe Weather on mobile